createdAt,value
2017-05-22T00:02:02.559Z,4.23
2017-05-22T00:04:30.240Z,4.65
2017-05-22T00:06:57.881Z,4.55
2017-05-22T00:09:25.849Z,4.58
2017-05-22T00:11:53.498Z,4.80
2017-05-22T00:14:21.143Z,6.03
2017-05-22T00:16:48.817Z,3.93
2017-05-22T00:19:17.299Z,5.40
2017-05-22T00:21:45.247Z,4.93
2017-05-22T00:24:12.897Z,4.42
2017-05-22T00:26:40.545Z,5.02
2017-05-22T00:29:08.229Z,4.50
2017-05-22T00:31:35.873Z,4.63
2017-05-22T00:34:04.597Z,3.65
2017-05-22T00:36:32.240Z,4.62
2017-05-22T00:38:59.892Z,4.38
2017-05-22T00:41:27.570Z,3.78
2017-05-22T00:43:55.221Z,4.02
2017-05-22T00:46:23.213Z,3.42
2017-05-22T00:48:51.628Z,3.98
2017-05-22T00:51:19.267Z,5.07
2017-05-22T00:53:47.714Z,4.97
2017-05-22T00:56:16.162Z,4.22
2017-05-22T00:58:44.179Z,4.03
2017-05-22T01:01:11.827Z,5.07
2017-05-22T01:03:39.485Z,4.60
2017-05-22T01:06:07.155Z,4.02
2017-05-22T01:08:34.810Z,5.30
2017-05-22T01:11:03.563Z,5.98
2017-05-22T01:13:31.210Z,4.80
2017-05-22T01:15:58.855Z,4.70
2017-05-22T01:18:26.649Z,4.32
2017-05-22T01:20:54.302Z,5.35
2017-05-22T01:23:22.418Z,6.03
2017-05-22T01:25:50.062Z,4.57
2017-05-22T01:28:18.505Z,6.30
2017-05-22T01:30:46.178Z,7.45
2017-05-22T01:33:14.594Z,5.97
2017-05-22T01:35:42.540Z,5.97
2017-05-22T01:38:10.185Z,5.03
2017-05-22T01:40:37.834Z,4.90
2017-05-22T01:43:06.266Z,4.93
2017-05-22T01:45:34.672Z,4.75
2017-05-22T01:48:03.526Z,4.97
2017-05-22T01:50:31.174Z,6.38
2017-05-22T01:52:58.826Z,5.92
2017-05-22T01:55:27.283Z,6.13
2017-05-22T01:57:54.925Z,6.08
2017-05-22T02:00:22.872Z,5.38
2017-05-22T02:02:51.284Z,6.27
2017-05-22T02:05:18.925Z,5.25
2017-05-22T02:07:46.589Z,4.82
2017-05-22T02:10:14.234Z,5.85
2017-05-22T02:12:42.179Z,5.85
2017-05-22T02:15:10.588Z,5.27
2017-05-22T02:17:38.237Z,4.97
2017-05-22T02:20:06.672Z,6.50
2017-05-22T02:22:34.313Z,5.38
2017-05-22T02:25:02.275Z,6.00
2017-05-22T02:27:30.699Z,6.93
2017-05-22T02:29:58.351Z,6.62
2017-05-22T02:32:26.029Z,7.22
2017-05-22T02:34:53.690Z,6.77
2017-05-22T02:37:21.631Z,6.98
2017-05-22T02:39:49.281Z,5.67
2017-05-22T02:42:16.917Z,6.77
2017-05-22T02:44:44.583Z,6.90
2017-05-22T02:47:12.228Z,7.12
2017-05-22T02:49:40.297Z,4.97
2017-05-22T02:52:07.941Z,7.75
2017-05-22T02:54:35.579Z,6.82
2017-05-22T02:57:04.014Z,6.60
2017-05-22T02:59:32.429Z,6.97
2017-05-22T03:02:00.367Z,6.08
2017-05-22T03:04:28.011Z,6.30
2017-05-22T03:06:56.444Z,6.75
2017-05-22T03:09:24.113Z,5.98
2017-05-22T03:11:52.521Z,6.08
2017-05-22T03:14:21.286Z,5.32
2017-05-22T03:16:48.947Z,6.07
2017-05-22T03:19:16.603Z,5.80
2017-05-22T03:21:44.276Z,6.82
2017-05-22T03:24:12.685Z,6.02
2017-05-22T03:26:41.432Z,6.15
2017-05-22T03:29:09.072Z,6.73
2017-05-22T03:31:36.728Z,6.55
2017-05-22T03:34:04.397Z,7.22
2017-05-22T03:36:32.050Z,5.95
2017-05-22T03:39:00.789Z,6.88
2017-05-22T03:41:28.474Z,6.62
2017-05-22T03:43:56.118Z,7.38
2017-05-22T03:46:23.776Z,7.32
2017-05-22T03:48:51.415Z,6.55
2017-05-22T03:51:19.372Z,7.03
2017-05-22T03:53:47.019Z,7.52
2017-05-22T03:56:15.426Z,6.83
2017-05-22T03:58:43.865Z,6.08
2017-05-22T04:01:11.500Z,6.57
2017-05-22T04:03:40.219Z,5.87
2017-05-22T04:06:08.633Z,6.63
2017-05-22T04:08:36.285Z,7.33
2017-05-22T04:11:03.944Z,7.75
2017-05-22T04:13:32.346Z,6.63
2017-05-22T04:16:00.010Z,6.50
2017-05-22T04:18:27.687Z,6.37
2017-05-22T04:20:56.123Z,7.07
2017-05-22T04:23:24.073Z,6.50
2017-05-22T04:25:51.760Z,7.47
2017-05-22T04:28:19.401Z,6.53
2017-05-22T04:30:47.409Z,7.42
2017-05-22T04:33:15.052Z,7.27
2017-05-22T04:35:43.489Z,7.20
2017-05-22T04:38:11.168Z,6.07
2017-05-22T04:40:38.865Z,6.60
2017-05-22T04:43:06.876Z,6.15
2017-05-22T04:45:34.522Z,6.15
2017-05-22T04:48:02.174Z,5.42
2017-05-22T04:50:29.840Z,7.28
2017-05-22T04:52:57.545Z,5.53
2017-05-22T04:55:25.640Z,6.27
2017-05-22T04:57:53.306Z,6.27
2017-05-22T05:00:20.947Z,6.07
2017-05-22T05:02:48.628Z,5.12
2017-05-22T05:05:16.308Z,5.75
2017-05-22T05:07:44.369Z,5.07
2017-05-22T05:10:12.787Z,5.32
2017-05-22T05:12:41.216Z,6.02
2017-05-22T05:15:08.878Z,4.22
2017-05-22T05:17:37.289Z,5.72
2017-05-22T05:20:05.251Z,5.08
2017-05-22T05:22:33.720Z,5.52
2017-05-22T05:25:01.369Z,5.40
2017-05-22T05:27:29.063Z,5.62
2017-05-22T05:29:56.800Z,4.85
2017-05-22T05:32:24.741Z,5.60
2017-05-22T05:34:52.402Z,6.48
2017-05-22T05:37:20.045Z,5.03
2017-05-22T05:39:47.741Z,4.62
2017-05-22T05:42:15.405Z,4.02
2017-05-22T05:44:43.338Z,4.38
2017-05-22T05:47:10.992Z,5.02
2017-05-22T05:49:39.424Z,3.63
2017-05-22T05:52:07.091Z,3.77
2017-05-22T05:54:35.502Z,3.77
2017-05-22T05:57:03.553Z,3.42
2017-05-22T05:59:31.214Z,3.52
2017-05-22T06:01:58.875Z,3.05
2017-05-22T06:04:26.548Z,2.78
2017-05-22T06:06:54.951Z,4.10
2017-05-22T06:09:23.716Z,3.30
2017-05-22T06:11:52.123Z,3.16
2017-05-22T06:14:19.747Z,3.66
2017-05-22T06:16:47.409Z,5.68
2017-05-22T06:19:15.802Z,2.78
2017-05-22T06:21:43.814Z,3.28
2017-05-22T06:24:11.441Z,3.40
2017-05-22T06:26:39.838Z,3.32
2017-05-22T06:29:07.496Z,6.18
2017-05-22T06:31:35.122Z,2.88
2017-05-22T06:34:03.043Z,3.34
2017-05-22T06:36:30.654Z,2.70
2017-05-22T06:38:59.048Z,3.26
2017-05-22T06:41:27.460Z,3.34
2017-05-22T06:43:55.074Z,3.18
2017-05-22T06:46:23.026Z,3.22
2017-05-22T06:48:52.381Z,2.98
2017-05-22T06:51:20.763Z,3.68
2017-05-22T06:53:48.412Z,3.16
2017-05-22T06:56:16.025Z,3.68
2017-05-22T06:58:44.706Z,2.64
2017-05-22T07:01:12.335Z,2.98
2017-05-22T07:03:39.953Z,3.48
2017-05-22T07:06:08.366Z,3.62
2017-05-22T07:08:35.983Z,2.92
2017-05-22T07:11:03.921Z,3.26
2017-05-22T07:13:32.313Z,2.32
2017-05-22T07:15:59.947Z,2.26
2017-05-22T07:18:27.609Z,2.16
2017-05-22T07:20:55.245Z,2.34
2017-05-22T07:23:23.257Z,2.16
2017-05-22T07:25:50.900Z,4.38
2017-05-22T07:28:19.290Z,2.64
2017-05-22T07:30:47.696Z,2.64
2017-05-22T07:33:15.312Z,2.20
2017-05-22T07:35:44.008Z,4.06
2017-05-22T07:38:11.640Z,7.18
2017-05-22T07:40:39.267Z,3.14
2017-05-22T07:43:06.911Z,2.78
2017-05-22T07:45:34.547Z,3.72
2017-05-22T07:48:02.589Z,3.52
2017-05-22T07:50:30.262Z,4.66
2017-05-22T07:52:58.658Z,2.54
2017-05-22T07:55:26.325Z,2.46
2017-05-22T07:57:53.959Z,3.04
2017-05-22T08:00:22.661Z,2.76
2017-05-22T08:02:50.286Z,2.54
2017-05-22T08:05:18.687Z,2.40
2017-05-22T08:07:46.345Z,2.96
2017-05-22T08:10:13.965Z,2.20
2017-05-22T08:12:41.911Z,3.60
2017-05-22T08:15:09.558Z,2.44
2017-05-22T08:17:37.185Z,3.22
2017-05-22T08:20:04.828Z,4.56
2017-05-22T08:22:32.446Z,3.18
2017-05-22T08:25:00.472Z,4.92
2017-05-22T08:27:28.096Z,2.34
2017-05-22T08:29:55.724Z,3.42
2017-05-22T08:32:23.366Z,2.52
2017-05-22T08:34:50.987Z,5.16
2017-05-22T08:37:18.933Z,2.82
2017-05-22T08:39:46.560Z,3.06
2017-05-22T08:42:14.191Z,3.16
2017-05-22T08:44:41.831Z,2.76
2017-05-22T08:47:09.443Z,3.10
2017-05-22T08:49:37.375Z,4.04
2017-05-22T08:52:05.002Z,3.18
2017-05-22T08:54:32.624Z,4.16
2017-05-22T08:57:00.272Z,3.02
2017-05-22T08:59:27.910Z,3.14
2017-05-22T09:01:56.581Z,2.60
2017-05-22T09:04:24.211Z,3.50
2017-05-22T09:06:51.848Z,2.78
2017-05-22T09:09:19.493Z,5.00
2017-05-22T09:11:47.118Z,2.42
2017-05-22T09:14:15.130Z,3.66
2017-05-22T09:16:42.754Z,2.96
2017-05-22T09:19:10.372Z,4.96
2017-05-22T09:21:38.783Z,3.12
2017-05-22T09:24:07.181Z,4.92
2017-05-22T09:26:35.130Z,6.82
2017-05-22T09:29:03.524Z,3.44
2017-05-22T09:31:31.148Z,3.12
2017-05-22T09:33:59.172Z,3.48
2017-05-22T09:36:26.793Z,3.08
2017-05-22T09:38:54.421Z,3.36
2017-05-22T09:41:22.837Z,3.30
2017-05-22T09:43:50.465Z,3.34
2017-05-22T09:46:18.416Z,2.84
2017-05-22T09:48:46.805Z,2.82
2017-05-22T09:51:14.429Z,3.04
2017-05-22T09:53:42.854Z,3.24
2017-05-22T09:56:11.057Z,4.26
2017-05-22T09:58:39.017Z,3.00
2017-05-22T10:01:06.642Z,4.56
2017-05-22T10:03:34.265Z,3.28
2017-05-22T10:06:01.925Z,2.96
2017-05-22T10:08:30.323Z,3.46
2017-05-22T10:10:58.244Z,2.88
2017-05-22T10:13:26.081Z,3.16
2017-05-22T10:15:54.486Z,3.00
2017-05-22T10:18:22.155Z,2.98
2017-05-22T10:20:49.804Z,3.48
2017-05-22T10:23:17.854Z,2.84
2017-05-22T10:25:45.482Z,2.52
2017-05-22T10:28:13.120Z,2.70
2017-05-22T10:30:41.545Z,2.40
2017-05-22T10:33:09.171Z,4.72
2017-05-22T10:35:37.197Z,3.80
2017-05-22T10:38:04.818Z,2.76
2017-05-22T10:40:32.449Z,2.32
2017-05-22T10:43:00.107Z,3.32
2017-05-22T10:45:27.770Z,2.48
2017-05-22T10:47:55.800Z,3.00
2017-05-22T10:50:24.198Z,3.20
2017-05-22T10:52:51.845Z,5.34
2017-05-22T10:55:19.525Z,3.06
2017-05-22T10:57:47.154Z,2.96
2017-05-22T11:00:15.862Z,2.60
2017-05-22T11:02:44.267Z,2.24
2017-05-22T11:05:12.655Z,3.34
2017-05-22T11:07:40.312Z,2.10
2017-05-22T11:10:07.953Z,2.22
2017-05-22T11:12:36.632Z,3.18
2017-05-22T11:15:04.250Z,2.52
2017-05-22T11:17:32.640Z,3.00
2017-05-22T11:20:01.068Z,3.60
2017-05-22T11:22:29.468Z,2.78
2017-05-22T11:24:57.601Z,2.42
2017-05-22T11:27:25.234Z,3.42
2017-05-22T11:29:53.632Z,3.20
2017-05-22T11:32:21.292Z,2.04
2017-05-22T11:34:48.925Z,2.48
2017-05-22T11:37:16.849Z,2.26
2017-05-22T11:39:44.492Z,3.12
2017-05-22T11:42:12.886Z,2.10
2017-05-22T11:44:40.548Z,5.30
2017-05-22T11:47:08.947Z,2.86
2017-05-22T11:49:36.922Z,2.40
2017-05-22T11:52:04.556Z,2.38
2017-05-22T11:54:32.188Z,3.20
2017-05-22T11:57:00.603Z,2.62
2017-05-22T11:59:28.232Z,2.56
2017-05-22T12:01:56.926Z,2.86
2017-05-22T12:04:24.553Z,1.86
2017-05-22T12:06:52.174Z,2.08
2017-05-22T12:09:19.827Z,3.44
2017-05-22T12:11:48.227Z,2.66
2017-05-22T12:14:15.854Z,3.30
2017-05-22T12:16:43.957Z,3.56
2017-05-22T12:19:11.584Z,3.18
2017-05-22T12:21:39.980Z,2.24
2017-05-22T12:24:08.702Z,3.36
2017-05-22T12:26:36.341Z,2.50
2017-05-22T12:29:03.975Z,2.50
2017-05-22T12:31:31.629Z,2.72
2017-05-22T12:33:59.260Z,4.60
2017-05-22T12:36:27.194Z,4.40
2017-05-22T12:41:32.044Z,1.82
2017-05-22T12:43:59.669Z,3.28
2017-05-22T12:46:27.304Z,1.90
2017-05-22T12:48:55.298Z,1.88
2017-05-22T12:51:23.705Z,2.38
2017-05-22T12:53:52.101Z,2.54
2017-05-22T12:56:19.756Z,1.84
2017-05-22T12:58:47.387Z,2.64
2017-05-22T13:01:15.356Z,2.16
2017-05-22T13:03:43.142Z,3.74
2017-05-22T13:06:11.534Z,1.80
2017-05-22T13:08:39.186Z,2.32
2017-05-22T13:11:06.824Z,3.54
2017-05-22T13:13:34.817Z,4.14
2017-05-22T13:16:03.212Z,2.34
2017-05-22T13:18:30.849Z,4.22
2017-05-22T13:20:59.285Z,4.18
2017-05-22T13:23:26.912Z,3.12
2017-05-22T13:25:55.657Z,2.40
2017-05-22T13:28:24.366Z,2.20
2017-05-22T13:30:52.819Z,2.48
2017-05-22T13:33:21.274Z,2.10
2017-05-22T13:35:48.960Z,2.68
2017-05-22T13:38:17.042Z,2.40
2017-05-22T13:40:45.443Z,2.18
2017-05-22T13:43:13.130Z,1.76
2017-05-22T13:45:40.778Z,2.38
2017-05-22T13:48:09.189Z,2.36
2017-05-22T13:50:37.929Z,2.08
2017-05-22T13:53:06.315Z,2.84
2017-05-22T13:55:34.020Z,2.24
2017-05-22T13:58:02.446Z,3.78
2017-05-22T14:00:30.122Z,2.20
2017-05-22T14:02:58.108Z,3.74
2017-05-22T14:05:26.596Z,1.60
2017-05-22T14:07:59.641Z,2.40
2017-05-22T14:10:28.048Z,2.24
2017-05-22T14:12:55.701Z,1.84
2017-05-22T14:15:27.477Z,2.04
2017-05-22T14:17:55.971Z,3.12
2017-05-22T14:20:24.671Z,3.14
2017-05-22T14:22:52.343Z,1.78
2017-05-22T14:25:20.023Z,1.90
2017-05-22T14:27:47.694Z,1.64
2017-05-22T14:30:15.408Z,1.63
2017-05-22T14:32:43.376Z,2.07
2017-05-22T14:35:11.021Z,2.25
2017-05-22T14:37:38.659Z,1.63
2017-05-22T14:40:06.377Z,1.37
2017-05-22T14:42:34.001Z,1.82
2017-05-22T14:45:01.932Z,2.60
2017-05-22T14:47:29.570Z,4.18
2017-05-22T14:49:57.227Z,1.50
2017-05-22T14:52:25.676Z,3.34
2017-05-22T14:54:53.301Z,2.34
2017-05-22T14:57:21.308Z,2.15
2017-05-22T14:59:49.725Z,2.08
2017-05-22T15:02:18.141Z,1.70
2017-05-22T15:04:45.794Z,2.40
2017-05-22T15:07:13.446Z,1.48
2017-05-22T15:09:42.176Z,2.62
2017-05-22T15:12:10.588Z,1.75
2017-05-22T15:14:38.997Z,1.65
2017-05-22T15:17:07.471Z,1.56
2017-05-22T15:19:35.118Z,2.45
2017-05-22T15:22:03.875Z,1.42
2017-05-22T15:24:31.517Z,1.86
2017-05-22T15:26:59.161Z,1.97
2017-05-22T15:29:26.806Z,1.52
2017-05-22T15:31:54.445Z,1.64
2017-05-22T15:34:22.360Z,1.12
2017-05-22T15:36:50.006Z,1.48
2017-05-22T15:39:18.443Z,2.55
2017-05-22T15:41:46.097Z,1.74
2017-05-22T15:44:14.509Z,2.35
2017-05-22T15:46:42.486Z,1.55
2017-05-22T15:49:10.901Z,1.43
2017-05-22T15:51:39.309Z,1.60
2017-05-22T15:54:07.738Z,1.57
2017-05-22T15:56:36.152Z,2.78
2017-05-22T15:59:04.090Z,3.52
2017-05-22T16:01:32.548Z,2.13
2017-05-22T16:04:00.205Z,2.47
2017-05-22T16:06:28.648Z,1.77
2017-05-22T16:08:56.300Z,2.12
2017-05-22T16:11:24.285Z,1.66
2017-05-22T16:13:51.921Z,1.76
2017-05-22T16:16:20.329Z,1.70
2017-05-22T16:18:48.764Z,1.40
2017-05-22T16:21:16.404Z,1.55
2017-05-22T16:23:44.464Z,1.53
2017-05-22T16:26:12.872Z,1.54
2017-05-22T16:28:40.535Z,1.50
2017-05-22T16:31:08.190Z,1.60
2017-05-22T16:33:35.857Z,2.02
2017-05-22T16:36:03.767Z,2.08
2017-05-22T16:38:32.148Z,3.32
2017-05-22T16:41:00.494Z,1.67
2017-05-22T16:43:28.163Z,2.20
2017-05-22T16:45:55.888Z,1.58
2017-05-22T16:48:23.861Z,1.73
2017-05-22T16:50:51.513Z,1.83
2017-05-22T16:53:19.148Z,1.72
2017-05-22T16:55:46.813Z,1.55
2017-05-22T16:58:14.465Z,3.25
2017-05-22T17:00:42.473Z,1.80
2017-05-22T17:03:10.124Z,1.80
2017-05-22T17:05:37.769Z,2.20
2017-05-22T17:08:05.451Z,2.02
2017-05-22T17:10:33.867Z,1.57
2017-05-22T17:13:01.896Z,1.88
2017-05-22T17:15:30.306Z,2.07
2017-05-22T17:17:57.949Z,1.93
2017-05-22T17:20:26.385Z,2.83
2017-05-22T17:22:54.029Z,1.80
2017-05-22T17:25:21.971Z,2.57
2017-05-22T17:27:49.609Z,1.58
2017-05-22T17:30:17.255Z,2.62
2017-05-22T17:32:44.924Z,2.18
2017-05-22T17:35:13.342Z,1.62
2017-05-22T17:37:41.316Z,1.92
2017-05-22T17:40:08.965Z,1.82
2017-05-22T17:42:36.608Z,2.12
2017-05-22T17:45:04.286Z,1.93
2017-05-22T17:47:31.932Z,3.50
2017-05-22T17:49:59.965Z,2.03
2017-05-22T17:52:27.618Z,1.90
2017-05-22T17:54:55.300Z,1.72
2017-05-22T17:57:23.733Z,2.12
2017-05-22T17:59:51.376Z,2.10
2017-05-22T18:02:19.424Z,2.02
2017-05-22T18:04:47.080Z,1.77
2017-05-22T18:07:14.731Z,2.17
2017-05-22T18:09:42.406Z,2.12
2017-05-22T18:12:10.059Z,1.98
2017-05-22T18:14:38.102Z,1.82
2017-05-22T18:17:05.763Z,2.12
2017-05-22T18:19:33.430Z,2.10
2017-05-22T18:22:01.097Z,2.32
2017-05-22T18:24:29.567Z,2.08
2017-05-22T18:26:57.507Z,3.22
2017-05-22T18:29:25.165Z,2.22
2017-05-22T18:31:52.839Z,1.70
2017-05-22T18:34:20.623Z,1.92
2017-05-22T18:36:49.033Z,3.68
2017-05-22T18:39:17.033Z,3.68
2017-05-22T18:41:44.673Z,2.67
2017-05-22T18:44:12.352Z,2.73
2017-05-22T18:46:40.034Z,2.55
2017-05-22T18:49:07.689Z,3.07
2017-05-22T18:51:36.452Z,2.85
2017-05-22T18:54:04.121Z,2.80
2017-05-22T18:56:31.773Z,2.32
2017-05-22T18:58:59.443Z,2.70
2017-05-22T19:01:27.876Z,2.18
2017-05-22T19:03:56.589Z,2.20
2017-05-22T19:06:25.008Z,2.97
2017-05-22T19:08:52.650Z,2.15
2017-05-22T19:11:20.333Z,2.57
2017-05-22T19:13:47.981Z,2.63
2017-05-22T19:16:15.931Z,2.33
2017-05-22T19:18:43.581Z,2.28
2017-05-22T19:21:11.241Z,2.38
2017-05-22T19:23:39.665Z,2.20
2017-05-22T19:26:07.321Z,2.63
2017-05-22T19:28:35.283Z,2.52
2017-05-22T19:31:02.934Z,2.53
2017-05-22T19:33:30.578Z,3.28
2017-05-22T19:35:58.256Z,3.55
2017-05-22T19:38:26.734Z,3.20
2017-05-22T19:40:54.854Z,2.82
2017-05-22T19:43:22.682Z,4.03
2017-05-22T19:45:50.325Z,2.92
2017-05-22T19:48:18.026Z,2.47
2017-05-22T19:50:45.672Z,2.63
2017-05-22T19:53:13.785Z,2.58
2017-05-22T19:55:41.458Z,3.00
2017-05-22T19:58:09.926Z,5.92
2017-05-22T20:00:37.613Z,3.45
2017-05-22T20:03:05.278Z,3.98
2017-05-22T20:05:33.239Z,2.88
2017-05-22T20:08:00.911Z,4.05
2017-05-22T20:10:28.568Z,3.48
2017-05-22T20:12:56.559Z,3.67
2017-05-22T20:15:24.411Z,4.18
2017-05-22T20:17:52.377Z,3.30
2017-05-22T20:20:20.799Z,3.20
2017-05-22T20:22:48.453Z,3.95
2017-05-22T20:25:16.143Z,2.83
2017-05-22T20:27:43.820Z,3.68
2017-05-22T20:30:11.789Z,3.90
2017-05-22T20:32:40.203Z,3.43
2017-05-22T20:35:08.030Z,4.58
2017-05-22T20:37:35.710Z,4.12
2017-05-22T20:40:03.394Z,4.85
2017-05-22T20:42:31.454Z,4.45
2017-05-22T20:44:59.105Z,4.83
2017-05-22T20:47:26.764Z,3.83
2017-05-22T20:49:54.437Z,3.95
2017-05-22T20:52:22.906Z,4.83
2017-05-22T20:54:50.877Z,4.42
2017-05-22T20:57:19.534Z,5.32
2017-05-22T20:59:47.961Z,4.73
2017-05-22T21:02:15.654Z,6.40
2017-05-22T21:04:43.309Z,6.25
2017-05-22T21:07:11.784Z,4.50
2017-05-22T21:09:39.503Z,4.82
2017-05-22T21:12:07.213Z,4.07
2017-05-22T21:14:35.183Z,4.72
2017-05-22T21:17:02.827Z,5.55
2017-05-22T21:19:30.477Z,4.92
2017-05-22T21:21:59.221Z,4.48
2017-05-22T21:24:26.883Z,5.28
2017-05-22T21:26:54.596Z,6.17
2017-05-22T21:29:23.074Z,5.57
2017-05-22T21:31:50.721Z,4.52
2017-05-22T21:34:18.704Z,5.73
2017-05-22T21:36:46.349Z,5.03
2017-05-22T21:39:14.761Z,5.02
2017-05-22T21:41:43.204Z,5.37
2017-05-22T21:44:10.858Z,5.68
2017-05-22T21:46:39.581Z,6.13
2017-05-22T21:49:07.225Z,5.08
2017-05-22T21:51:34.873Z,5.52
2017-05-22T21:54:02.537Z,4.87
2017-05-22T21:56:30.192Z,5.55
2017-05-22T21:58:58.128Z,6.88
2017-05-22T22:01:25.788Z,5.72
2017-05-22T22:03:54.206Z,5.93
2017-05-22T22:06:21.872Z,5.43
2017-05-22T22:08:49.584Z,5.38
2017-05-22T22:11:18.306Z,6.02
2017-05-22T22:13:45.944Z,6.35
2017-05-22T22:16:13.589Z,5.88
2017-05-22T22:18:41.305Z,4.90
2017-05-22T22:21:08.953Z,5.47
2017-05-22T22:23:36.945Z,6.15
2017-05-22T22:26:04.595Z,6.68
2017-05-22T22:28:32.258Z,5.43
2017-05-22T22:30:59.930Z,5.78
2017-05-22T22:33:27.572Z,5.53
2017-05-22T22:35:56.261Z,5.90
2017-05-22T22:38:23.906Z,5.45
2017-05-22T22:40:51.561Z,6.05
2017-05-22T22:43:19.238Z,7.32
2017-05-22T22:45:46.880Z,5.98
2017-05-22T22:48:15.582Z,6.33
2017-05-22T22:50:43.242Z,5.93
2017-05-22T22:53:10.907Z,6.03
2017-05-22T22:55:38.580Z,5.85
2017-05-22T22:58:06.229Z,7.57
2017-05-22T23:00:35.016Z,6.83
2017-05-22T23:03:03.429Z,6.75
2017-05-22T23:05:31.069Z,6.80
2017-05-22T23:07:58.766Z,6.10
2017-05-22T23:10:26.664Z,5.68
2017-05-22T23:12:54.695Z,5.68
2017-05-22T23:15:22.350Z,6.75
2017-05-22T23:17:49.990Z,6.57
2017-05-22T23:20:17.658Z,7.22
2017-05-22T23:22:46.086Z,6.52
2017-05-22T23:25:14.059Z,7.32
2017-05-22T23:27:41.703Z,7.45
2017-05-22T23:30:09.342Z,5.75
2017-05-22T23:32:37.824Z,5.42
2017-05-22T23:35:05.452Z,5.95
2017-05-22T23:37:33.401Z,6.88
2017-05-22T23:40:01.047Z,6.15
2017-05-22T23:42:28.713Z,5.68
2017-05-22T23:44:56.415Z,6.13
2017-05-22T23:47:24.064Z,5.52
2017-05-22T23:49:52.014Z,6.67
2017-05-22T23:52:19.672Z,6.93
2017-05-22T23:54:47.334Z,6.70
2017-05-22T23:57:15.041Z,6.27
2017-05-22T23:59:42.680Z,5.52
